Time;durP1;ratioP1;P1;durP2;ratioP2;P2;SDS_P1;SDS_P2;PMS_P1;PMS_P2;Temp;Humidity;BMP_temperature;BMP_pressure;BME280_temperature;BME280_humidity;BME280_pressure;Samples;Min_cycle;Max_cycle;Signal;HPM_P1;HPM_P2
2023/10/09 00:01:26;;;;;;;15.50;6.30;;;14.30;99.90;;;;;;5034243;28;20463;-65
2023/10/09 00:03:55;;;;;;;20.17;7.03;;;14.20;99.90;;;;;;5029837;28;20443;-65
2023/10/09 00:06:30;;;;;;;18.23;7.33;;;14.20;99.90;;;;;;5031889;28;20439;-65
2023/10/09 00:08:58;;;;;;;19.63;7.77;;;14.20;99.90;;;;;;5030918;28;20439;-65
2023/10/09 00:11:29;;;;;;;24.30;6.40;;;14.20;99.90;;;;;;5034038;28;20476;-65
2023/10/09 00:13:58;;;;;;;18.60;6.80;;;14.20;99.90;;;;;;5031529;28;20437;-65
2023/10/09 00:16:47;;;;;;;15.27;7.17;;;14.10;99.90;;;;;;5033441;28;20460;-65
2023/10/09 00:19:14;;;;;;;16.57;6.70;;;14.10;99.90;;;;;;5033715;28;20940;-65
2023/10/09 00:21:50;;;;;;;11.57;6.53;;;14.10;99.90;;;;;;5022996;28;20953;-65
2023/10/09 00:24:23;;;;;;;15.60;6.63;;;14.10;99.90;;;;;;5029387;28;20779;-65
2023/10/09 00:26:49;;;;;;;17.87;6.60;;;14.10;99.90;;;;;;5034254;28;20433;-65
2023/10/09 00:29:22;;;;;;;18.37;6.23;;;14.10;99.90;;;;;;5044833;28;20942;-65
2023/10/09 00:32:13;;;;;;;17.03;5.90;;;14.10;99.90;;;;;;5030677;28;20453;-65
2023/10/09 00:34:42;;;;;;;21.20;6.73;;;14.10;99.90;;;;;;5033577;28;20421;-65
2023/10/09 00:37:17;;;;;;;16.67;6.53;;;14.00;99.90;;;;;;5042885;28;20504;-65
2023/10/09 00:39:43;;;;;;;19.13;6.10;;;13.90;99.90;;;;;;5037473;28;20436;-65
2023/10/09 00:42:14;;;;;;;23.47;7.60;;;13.90;99.90;;;;;;5046624;28;20435;-65
2023/10/09 00:44:40;;;;;;;22.90;7.47;;;13.90;99.90;;;;;;5020293;28;20480;-65
2023/10/09 00:47:20;;;;;;;16.93;7.60;;;13.90;99.90;;;;;;5039920;28;20436;-65
2023/10/09 00:49:47;;;;;;;17.13;5.67;;;14.00;99.90;;;;;;5027126;28;20424;-65
2023/10/09 00:52:22;;;;;;;16.30;6.73;;;14.00;99.90;;;;;;5034077;28;20437;-65
2023/10/09 00:54:51;;;;;;;19.50;6.53;;;14.00;99.90;;;;;;5031678;28;20805;-65
2023/10/09 00:57:24;;;;;;;10.93;5.73;;;14.00;99.90;;;;;;5031408;28;20510;-65
2023/10/09 00:59:59;;;;;;;13.50;6.10;;;14.00;99.90;;;;;;5032158;28;20802;-65
2023/10/09 01:02:35;;;;;;;12.27;4.97;;;14.00;99.90;;;;;;5033033;28;20432;-65
2023/10/09 01:05:12;;;;;;;30.23;7.30;;;13.90;99.90;;;;;;5029471;28;20514;-65
2023/10/09 01:07:44;;;;;;;17.50;6.63;;;14.00;99.90;;;;;;5029112;28;20480;-65
2023/10/09 01:10:11;;;;;;;12.57;5.73;;;13.90;99.90;;;;;;5031847;28;20482;-65
2023/10/09 01:12:43;;;;;;;14.07;5.73;;;13.90;99.90;;;;;;5031678;28;20568;-65
2023/10/09 01:15:17;;;;;;;16.37;5.87;;;14.00;99.90;;;;;;5031137;28;20794;-65
2023/10/09 01:17:45;;;;;;;18.03;6.40;;;14.00;99.90;;;;;;5030812;28;21090;-65
2023/10/09 01:20:16;;;;;;;21.57;6.80;;;14.00;99.90;;;;;;5031801;28;20964;-65
2023/10/09 01:22:43;;;;;;;15.00;6.13;;;14.00;99.90;;;;;;5031000;28;20439;-65
2023/10/09 01:25:09;;;;;;;17.90;7.53;;;14.00;99.90;;;;;;5030966;28;20487;-65
2023/10/09 01:27:40;;;;;;;14.67;6.80;;;14.00;99.90;;;;;;5030420;28;20494;-65
2023/10/09 01:30:06;;;;;;;19.70;7.60;;;14.00;99.90;;;;;;5033332;28;20420;-65
2023/10/09 01:32:32;;;;;;;13.87;6.23;;;14.00;99.90;;;;;;5035248;28;20497;-65
2023/10/09 01:34:58;;;;;;;17.03;6.80;;;14.00;99.90;;;;;;5037844;28;20441;-65
2023/10/09 01:37:26;;;;;;;20.90;7.00;;;14.10;99.90;;;;;;5033859;28;20198;-65
2023/10/09 01:40:04;;;;;;;21.87;6.93;;;14.10;99.90;;;;;;5044402;28;20441;-65
2023/10/09 01:44:58;;;;;;;16.30;5.97;;;14.10;99.90;;;;;;5040450;28;20468;-65
2023/10/09 01:47:25;;;;;;;15.37;6.67;;;14.20;99.90;;;;;;5030430;28;20191;-65
2023/10/09 01:49:53;;;;;;;17.00;7.03;;;14.20;99.90;;;;;;5044569;28;20456;-65
2023/10/09 01:52:20;;;;;;;18.77;6.20;;;14.20;99.90;;;;;;5035328;28;20445;-65
2023/10/09 01:54:50;;;;;;;17.80;7.17;;;14.30;99.90;;;;;;5033322;28;20432;-65
2023/10/09 01:57:29;;;;;;;12.97;6.23;;;14.30;99.90;;;;;;5035534;28;20842;-65
2023/10/09 01:59:57;;;;;;;13.23;7.07;;;14.40;99.90;;;;;;5030996;28;20436;-66
2023/10/09 02:02:26;;;;;;;20.77;7.10;;;14.40;99.90;;;;;;5031729;28;20440;-65
2023/10/09 02:04:54;;;;;;;17.13;6.83;;;14.40;99.90;;;;;;5031358;28;20475;-65
2023/10/09 02:07:27;;;;;;;20.63;5.90;;;14.40;99.90;;;;;;5025328;28;20950;-65
2023/10/09 02:09:56;;;;;;;13.80;5.70;;;14.40;99.90;;;;;;5031515;28;20448;-65
2023/10/09 02:12:23;;;;;;;18.47;6.90;;;14.40;99.90;;;;;;5031462;28;20503;-65
2023/10/09 02:14:49;;;;;;;20.87;7.20;;;14.50;99.90;;;;;;5030541;28;20521;-65
2023/10/09 02:17:18;;;;;;;14.47;6.60;;;14.50;99.90;;;;;;5036750;28;20451;-65
2023/10/09 02:19:49;;;;;;;15.30;6.53;;;14.50;99.90;;;;;;5031012;28;20428;-65
2023/10/09 02:22:16;;;;;;;15.80;6.03;;;14.50;99.90;;;;;;5030627;28;21081;-65
2023/10/09 02:24:50;;;;;;;19.77;7.73;;;14.50;99.90;;;;;;5029248;28;20992;-65
2023/10/09 02:30:15;;;;;;;13.60;5.27;;;14.50;99.90;;;;;;5027417;28;20427;-65
2023/10/09 02:32:42;;;;;;;18.70;6.30;;;14.50;99.90;;;;;;5017920;28;20442;-65
2023/10/09 02:35:19;;;;;;;15.90;6.93;;;14.40;99.90;;;;;;5040251;28;20425;-65
2023/10/09 02:37:46;;;;;;;14.53;5.83;;;14.40;99.90;;;;;;5031525;28;20492;-65
2023/10/09 02:40:22;;;;;;;13.90;6.03;;;14.50;99.90;;;;;;5040210;28;20425;-65
2023/10/09 02:42:49;;;;;;;23.20;7.77;;;14.40;99.90;;;;;;5028035;28;20432;-65
2023/10/09 02:45:24;;;;;;;14.03;5.70;;;14.40;99.90;;;;;;5029351;28;20483;-65
2023/10/09 02:47:51;;;;;;;16.00;6.60;;;14.30;99.90;;;;;;5032981;28;20442;-65
2023/10/09 02:50:20;;;;;;;18.47;6.77;;;14.30;99.90;;;;;;5039431;28;20479;-65
2023/10/09 02:52:47;;;;;;;19.27;6.17;;;14.20;99.90;;;;;;5040316;28;20825;-65
2023/10/09 02:55:28;;;;;;;19.63;5.73;;;14.30;99.90;;;;;;5031238;28;20869;-65
2023/10/09 02:58:07;;;;;;;17.00;5.60;;;14.30;99.90;;;;;;5032122;28;20516;-65
2023/10/09 03:00:36;;;;;;;16.03;7.90;;;14.30;99.90;;;;;;5026909;28;20941;-65
2023/10/09 03:03:06;;;;;;;11.17;5.33;;;14.30;99.90;;;;;;5030743;28;20436;-65
2023/10/09 03:05:32;;;;;;;12.93;6.97;;;14.30;99.90;;;;;;5031145;28;20868;-65
2023/10/09 03:07:57;;;;;;;10.40;5.80;;;14.30;99.90;;;;;;5028083;28;20469;-65
2023/10/09 03:10:25;;;;;;;20.70;7.23;;;14.30;99.90;;;;;;5029651;28;20213;-65
2023/10/09 03:12:51;;;;;;;12.70;6.20;;;14.30;99.90;;;;;;5030460;28;20178;-65
2023/10/09 03:15:18;;;;;;;12.67;4.90;;;14.30;99.90;;;;;;5030077;28;20949;-65
2023/10/09 03:17:44;;;;;;;15.70;6.60;;;14.40;99.90;;;;;;5030125;28;20889;-65
2023/10/09 03:20:13;;;;;;;13.00;6.73;;;14.30;99.90;;;;;;5029902;28;20451;-65
2023/10/09 03:22:40;;;;;;;15.97;6.77;;;14.40;99.90;;;;;;5030277;28;20437;-65
2023/10/09 03:25:11;;;;;;;17.97;5.17;;;14.40;99.90;;;;;;5024619;28;20430;-65
2023/10/09 03:27:38;;;;;;;10.73;5.30;;;14.40;99.90;;;;;;5029929;28;20436;-65
2023/10/09 03:30:05;;;;;;;18.13;6.50;;;14.40;99.90;;;;;;5039563;28;20957;-65
2023/10/09 03:32:31;;;;;;;16.83;6.30;;;14.40;99.90;;;;;;5031856;28;20948;-65
2023/10/09 03:34:59;;;;;;;20.40;5.80;;;14.40;99.90;;;;;;5033886;28;20420;-65
2023/10/09 03:37:34;;;;;;;18.10;5.50;;;14.50;99.90;;;;;;5035286;28;20220;-65
2023/10/09 03:40:00;;;;;;;21.00;7.10;;;14.50;99.90;;;;;;5034906;28;20428;-65
2023/10/09 03:42:26;;;;;;;18.63;5.17;;;14.50;99.90;;;;;;5035456;28;20988;-65
2023/10/09 03:44:53;;;;;;;15.17;6.60;;;14.50;99.90;;;;;;5035020;28;20515;-65
2023/10/09 03:47:22;;;;;;;11.93;5.70;;;14.50;99.90;;;;;;5035206;28;20435;-65
2023/10/09 03:49:52;;;;;;;20.50;7.27;;;14.50;99.90;;;;;;5037620;28;20502;-65
2023/10/09 03:52:19;;;;;;;16.03;5.93;;;14.50;99.90;;;;;;5034567;28;20432;-65
2023/10/09 03:54:46;;;;;;;14.30;5.53;;;14.50;99.90;;;;;;5035027;28;20420;-65
2023/10/09 03:57:18;;;;;;;12.20;6.40;;;14.50;99.90;;;;;;5035188;28;20455;-65
2023/10/09 03:59:46;;;;;;;13.87;6.27;;;14.40;99.90;;;;;;5035067;28;20791;-66
2023/10/09 04:02:12;;;;;;;15.00;5.80;;;14.40;99.90;;;;;;5047399;28;20538;-65
2023/10/09 04:04:38;;;;;;;13.77;6.43;;;14.40;99.90;;;;;;5041879;28;20433;-65
2023/10/09 04:07:06;;;;;;;12.27;6.27;;;14.40;99.90;;;;;;5036235;28;20855;-65
2023/10/09 04:09:39;;;;;;;17.33;6.07;;;14.40;99.90;;;;;;5034432;28;20261;-65
2023/10/09 04:14:57;;;;;;;17.73;6.17;;;14.40;99.90;;;;;;5042653;28;20436;-65
2023/10/09 04:22:50;;;;;;;19.73;5.90;;;14.30;99.90;;;;;;5031821;28;20444;-65
2023/10/09 04:25:25;;;;;;;23.23;6.70;;;14.30;99.90;;;;;;5035070;28;20468;-65
2023/10/09 04:28:09;;;;;;;10.33;5.37;;;14.20;99.90;;;;;;5032560;28;20428;-65
2023/10/09 04:30:40;;;;;;;16.50;7.10;;;14.20;99.90;;;;;;5032976;28;20455;-65
2023/10/09 04:33:11;;;;;;;16.43;7.47;;;14.20;99.90;;;;;;5034896;28;20445;-65
2023/10/09 04:35:37;;;;;;;17.23;5.60;;;14.10;99.90;;;;;;5023787;28;20426;-65
2023/10/09 04:38:04;;;;;;;19.70;5.97;;;14.10;99.90;;;;;;5040892;28;20456;-65
2023/10/09 04:40:41;;;;;;;16.03;5.90;;;14.00;99.90;;;;;;5035877;28;20481;-65
2023/10/09 04:43:07;;;;;;;10.77;5.47;;;14.00;99.90;;;;;;5045614;28;20427;-65
2023/10/09 04:51:20;;;;;;;16.73;5.27;;;13.90;99.90;;;;;;5021067;28;20522;-65
2023/10/09 04:56:34;;;;;;;14.37;4.80;;;14.00;99.90;;;;;;5031519;28;20217;-65
2023/10/09 04:59:06;;;;;;;12.03;4.97;;;14.00;99.90;;;;;;5034533;28;20815;-65
2023/10/09 05:01:43;;;;;;;9.73;5.20;;;14.00;99.90;;;;;;5032314;28;20564;-65
2023/10/09 05:04:26;;;;;;;10.57;5.10;;;14.00;99.90;;;;;;5033574;28;20413;-66
2023/10/09 05:06:55;;;;;;;20.23;7.00;;;14.10;99.90;;;;;;5032895;28;20806;-65
2023/10/09 05:09:21;;;;;;;12.47;4.70;;;14.10;99.90;;;;;;5031789;28;20444;-65
2023/10/09 05:11:53;;;;;;;9.67;5.73;;;14.20;99.90;;;;;;5041716;22;20492;-67
2023/10/09 05:14:26;;;;;;;12.37;5.17;;;14.10;99.90;;;;;;5009422;28;20468;-67
2023/10/09 05:16:55;;;;;;;16.57;7.17;;;14.20;99.90;;;;;;5010134;28;20469;-67
2023/10/09 05:22:16;;;;;;;11.73;6.60;;;14.20;99.90;;;;;;5011870;28;20468;-67
2023/10/09 05:24:47;;;;;;;18.87;5.63;;;14.10;99.90;;;;;;5011304;28;20969;-66
2023/10/09 05:27:17;;;;;;;14.53;5.73;;;14.10;99.90;;;;;;5009266;28;20443;-67
2023/10/09 05:29:59;;;;;;;16.47;5.50;;;14.10;99.90;;;;;;5010497;28;20445;-66
2023/10/09 05:32:29;;;;;;;12.57;6.03;;;14.10;99.90;;;;;;5012451;28;20457;-67
2023/10/09 05:37:32;;;;;;;9.30;5.47;;;14.20;99.90;;;;;;5010316;28;20473;-69
2023/10/09 05:42:42;;;;;;;16.33;9.63;;;14.20;99.90;;;;;;5011872;28;20472;-67
2023/10/09 05:48:07;;;;;;;13.60;7.57;;;14.30;99.90;;;;;;5007868;28;20432;-68
2023/10/09 05:50:37;;;;;;;13.87;6.63;;;14.30;99.90;;;;;;5013470;28;20454;-67
2023/10/09 05:57:26;;;;;;;18.90;10.73;;;14.40;99.90;;;;;;5013187;28;20433;-68
2023/10/09 06:04:18;;;;;;;20.67;8.50;;;14.50;99.90;;;;;;5012778;28;20530;-67
2023/10/09 06:06:45;;;;;;;15.00;5.63;;;14.50;99.90;;;;;;5012855;28;20414;-68
2023/10/09 06:14:24;;;;;;;12.97;5.20;;;14.70;99.90;;;;;;5007481;28;21045;-68
2023/10/09 06:19:31;;;;;;;14.87;5.23;;;14.80;99.90;;;;;;5010288;28;20434;-69
2023/10/09 06:24:54;;;;;;;13.17;5.10;;;15.00;99.90;;;;;;5032667;28;20511;-68
2023/10/09 06:32:49;;;;;;;10.20;5.83;;;15.10;99.90;;;;;;5008842;28;20445;-68
2023/10/09 06:35:30;;;;;;;17.37;8.50;;;15.20;99.90;;;;;;5012603;28;20436;-68
2023/10/09 06:48:44;;;;;;;19.40;7.67;;;15.50;99.90;;;;;;5005842;28;20460;-69
2023/10/09 06:57:01;;;;;;;18.87;7.60;;;15.80;99.90;;;;;;5012386;28;20418;-68
2023/10/09 06:59:24;;;;;;;21.93;9.70;;;15.90;99.90;;;;;;5008058;28;20417;-67
2023/10/09 07:07:01;;;;;;;15.37;8.20;;;15.90;99.90;;;;;;5008667;28;20472;-68
2023/10/09 07:09:42;;;;;;;10.57;5.70;;;16.00;99.90;;;;;;5011575;28;20418;-69
2023/10/09 07:12:20;;;;;;;14.50;5.53;;;16.00;99.90;;;;;;5011929;28;20519;-69
2023/10/09 07:24:58;;;;;;;14.47;6.00;;;16.50;99.90;;;;;;5012117;28;20171;-68
2023/10/09 07:27:44;;;;;;;16.23;5.90;;;16.50;99.90;;;;;;5011902;28;20421;-67
2023/10/09 07:33:05;;;;;;;17.20;6.77;;;16.60;99.90;;;;;;5011759;28;20581;-68
2023/10/09 07:38:10;;;;;;;13.50;5.97;;;16.80;99.90;;;;;;5010761;28;20806;-68
2023/10/09 07:43:27;;;;;;;11.87;6.43;;;17.20;99.90;;;;;;5011364;28;21058;-68
2023/10/09 07:48:38;;;;;;;12.10;5.83;;;17.40;99.90;;;;;;5011959;28;20433;-69
2023/10/09 07:51:05;;;;;;;12.83;6.10;;;17.60;99.90;;;;;;5011688;28;20460;-68
2023/10/09 07:53:43;;;;;;;20.63;6.50;;;17.60;99.90;;;;;;5005275;28;20531;-68
2023/10/09 07:56:08;;;;;;;17.57;8.20;;;17.70;99.90;;;;;;5011785;28;20934;-68
2023/10/09 07:58:45;;;;;;;13.67;6.93;;;17.90;99.90;;;;;;5011725;28;20453;-68
2023/10/09 08:01:34;;;;;;;12.30;6.10;;;17.90;99.90;;;;;;5011685;28;20615;-68
2023/10/09 08:04:13;;;;;;;15.93;6.27;;;18.00;99.90;;;;;;5011512;28;20414;-68
2023/10/09 08:06:44;;;;;;;9.50;5.33;;;18.20;99.90;;;;;;5011770;28;20965;-67
2023/10/09 08:09:38;;;;;;;14.47;6.90;;;18.20;99.90;;;;;;5010697;28;20442;-68
2023/10/09 08:19:55;;;;;;;13.37;4.90;;;18.50;99.90;;;;;;5011744;28;20432;-68
2023/10/09 08:24:56;;;;;;;21.50;6.50;;;18.80;99.90;;;;;;5010868;28;20433;-68
2023/10/09 08:27:46;;;;;;;19.03;7.33;;;18.90;99.90;;;;;;5013540;28;20512;-67
2023/10/09 08:35:47;;;;;;;15.20;6.10;;;19.40;99.90;;;;;;5015225;28;20525;-68
2023/10/09 08:38:14;;;;;;;16.70;4.90;;;19.60;99.90;;;;;;5006044;28;20498;-70
2023/10/09 08:40:41;;;;;;;19.30;6.10;;;19.70;99.90;;;;;;5000282;28;20493;-68
2023/10/09 08:43:14;;;;;;;18.80;8.20;;;19.80;99.90;;;;;;5014532;28;20798;-67
2023/10/09 08:45:45;;;;;;;15.73;5.27;;;20.00;99.90;;;;;;5014610;28;20941;-68
2023/10/09 08:48:21;;;;;;;15.37;5.20;;;20.10;99.90;;;;;;5031006;28;20425;-68
2023/10/09 08:50:49;;;;;;;16.37;6.03;;;20.00;99.90;;;;;;5034162;28;20441;-67
2023/10/09 08:53:18;;;;;;;17.60;5.30;;;19.70;99.90;;;;;;5012665;28;20441;-68
2023/10/09 08:55:44;;;;;;;19.37;5.57;;;19.50;99.90;;;;;;5014210;28;20458;-68
2023/10/09 08:58:26;;;;;;;14.27;6.10;;;19.40;99.90;;;;;;5030040;28;20464;-67
2023/10/09 09:00:52;;;;;;;14.53;5.70;;;19.50;99.90;;;;;;5013411;28;20512;-67
2023/10/09 09:03:19;;;;;;;14.80;4.97;;;19.50;99.90;;;;;;5014706;28;20422;-68
2023/10/09 09:05:57;;;;;;;16.57;6.53;;;19.50;99.90;;;;;;5013926;28;20163;-68
2023/10/09 09:08:28;;;;;;;12.43;5.63;;;19.50;99.90;;;;;;5025152;28;20492;-68
2023/10/09 09:13:50;;;;;;;11.03;4.20;;;19.80;99.90;;;;;;5006055;28;20426;-68
2023/10/09 09:16:29;;;;;;;14.27;5.97;;;19.90;99.90;;;;;;5013762;28;20436;-68
2023/10/09 09:19:00;;;;;;;14.50;6.20;;;20.00;99.90;;;;;;5014038;28;20564;-68
2023/10/09 09:21:27;;;;;;;8.93;4.50;;;20.30;99.90;;;;;;5013795;28;20438;-68
2023/10/09 09:23:59;;;;;;;13.00;4.93;;;20.20;99.90;;;;;;5005408;28;20480;-68
2023/10/09 09:26:37;;;;;;;13.00;7.07;;;20.20;99.90;;;;;;5013935;28;20930;-67
2023/10/09 09:29:05;;;;;;;11.17;5.80;;;20.30;99.90;;;;;;5013718;28;20410;-68
2023/10/09 09:31:37;;;;;;;9.10;4.30;;;20.40;99.90;;;;;;5013470;28;20863;-68
2023/10/09 09:34:14;;;;;;;20.27;7.93;;;20.50;99.90;;;;;;5013422;28;20412;-68
2023/10/09 09:36:58;;;;;;;16.70;5.97;;;20.70;99.90;;;;;;5012719;28;20453;-67
2023/10/09 09:39:27;;;;;;;17.60;5.67;;;20.90;99.90;;;;;;5011367;28;20425;-67
2023/10/09 09:42:17;;;;;;;11.40;5.60;;;21.00;99.90;;;;;;5012614;28;20484;-67
2023/10/09 09:44:48;;;;;;;17.63;6.90;;;21.20;99.90;;;;;;4993613;28;20506;-69
2023/10/09 09:47:23;;;;;;;11.20;5.87;;;21.30;99.90;;;;;;4994396;28;20417;-68
2023/10/09 09:49:50;;;;;;;15.80;5.57;;;21.30;99.90;;;;;;4993753;28;20402;-68
2023/10/09 09:52:18;;;;;;;17.20;7.60;;;21.40;99.90;;;;;;4993548;28;20431;-67
2023/10/09 09:54:44;;;;;;;18.53;6.37;;;21.80;99.90;;;;;;4999698;28;20434;-69
2023/10/09 09:57:12;;;;;;;13.90;4.80;;;22.00;99.90;;;;;;5012016;28;21108;-67
2023/10/09 09:59:40;;;;;;;10.33;4.67;;;22.40;99.90;;;;;;5010628;28;20392;-68
2023/10/09 10:02:10;;;;;;;14.33;4.43;;;22.70;99.10;;;;;;5012561;28;20480;-68
2023/10/09 10:04:39;;;;;;;13.23;5.30;;;23.00;98.20;;;;;;5012900;28;20422;-68
2023/10/09 10:07:09;;;;;;;12.80;5.57;;;23.30;97.30;;;;;;5013008;28;20450;-70
2023/10/09 10:09:38;;;;;;;16.93;5.63;;;23.50;95.70;;;;;;5011452;28;20479;-68
2023/10/09 10:12:14;;;;;;;14.63;5.60;;;23.80;95.00;;;;;;5008974;28;20488;-67
2023/10/09 10:14:58;;;;;;;19.80;5.83;;;24.00;93.90;;;;;;4993055;28;20425;-67
2023/10/09 10:17:24;;;;;;;22.57;6.80;;;24.00;93.70;;;;;;4993549;28;20799;-68
2023/10/09 10:22:50;;;;;;;15.77;6.60;;;23.90;91.60;;;;;;4992907;28;20411;-68
2023/10/09 10:25:41;;;;;;;12.90;5.33;;;24.30;91.20;;;;;;5002894;28;20439;-68
2023/10/09 10:28:42;;;;;;;15.90;6.40;;;24.80;90.40;;;;;;5012769;28;20501;-69
2023/10/09 10:31:11;;;;;;;16.33;6.60;;;25.40;86.50;;;;;;5012648;28;20525;-66
2023/10/09 10:33:54;;;;;;;14.00;5.70;;;25.80;84.80;;;;;;5010795;28;20434;-66
2023/10/09 10:36:26;;;;;;;21.30;6.73;;;26.30;79.40;;;;;;5010255;28;20426;-67
2023/10/09 10:42:00;;;;;;;19.97;6.73;;;26.30;73.20;;;;;;5008096;28;20473;-69
2023/10/09 10:44:37;;;;;;;25.30;5.40;;;26.30;71.70;;;;;;5011693;28;20421;-69
2023/10/09 10:47:22;;;;;;;11.50;6.03;;;26.30;69.70;;;;;;5012323;28;20821;-69
2023/10/09 10:49:50;;;;;;;17.30;6.97;;;25.90;69.10;;;;;;5011172;28;20428;-67
2023/10/09 10:52:35;;;;;;;19.03;8.07;;;25.50;71.70;;;;;;5012549;28;20516;-68
2023/10/09 10:58:01;;;;;;;23.07;6.40;;;24.80;72.40;;;;;;4994631;28;20789;-68
2023/10/09 11:03:29;;;;;;;17.97;6.00;;;24.30;75.10;;;;;;5012335;28;20572;-68
2023/10/09 11:05:55;;;;;;;16.50;5.77;;;24.20;75.60;;;;;;5012276;28;20954;-68
2023/10/09 11:08:30;;;;;;;25.90;5.93;;;23.80;74.00;;;;;;5004699;28;20594;-68
2023/10/09 11:11:15;;;;;;;11.87;5.00;;;23.60;75.90;;;;;;5005908;28;20555;-69
2023/10/09 11:13:57;;;;;;;15.50;5.90;;;23.60;74.90;;;;;;5004270;28;20810;-69
2023/10/09 11:16:42;;;;;;;14.07;4.90;;;23.60;74.40;;;;;;5012229;28;20418;-70
2023/10/09 11:22:24;;;;;;;13.43;5.77;;;24.20;74.90;;;;;;5012195;28;20449;-69
2023/10/09 11:24:59;;;;;;;19.60;5.53;;;24.60;73.80;;;;;;5010634;28;20512;-70
2023/10/09 11:27:28;;;;;;;21.93;6.37;;;25.00;73.40;;;;;;5011913;28;20422;-70
2023/10/09 11:29:54;;;;;;;12.63;6.63;;;25.30;72.10;;;;;;5012045;28;20429;-70
2023/10/09 11:32:25;;;;;;;20.13;5.53;;;25.30;71.90;;;;;;5012013;28;20970;-70
2023/10/09 11:35:09;;;;;;;19.50;6.90;;;25.40;68.10;;;;;;5011695;28;20175;-70
2023/10/09 11:37:43;;;;;;;15.50;6.20;;;25.10;67.80;;;;;;5011856;28;20464;-69
2023/10/09 11:43:13;;;;;;;23.77;6.40;;;24.70;69.70;;;;;;5007374;28;20540;-69
2023/10/09 11:45:39;;;;;;;10.40;6.03;;;24.60;69.00;;;;;;5011801;28;20457;-70
2023/10/09 11:48:24;;;;;;;15.33;5.80;;;24.20;68.30;;;;;;5011870;28;20425;-70
2023/10/09 11:55:52;;;;;;;13.70;5.47;;;23.50;67.00;;;;;;5013359;28;20425;-69
2023/10/09 11:58:24;;;;;;;12.20;6.20;;;23.50;61.50;;;;;;5014361;28;20476;-69
2023/10/09 12:00:59;;;;;;;13.23;5.27;;;23.40;62.50;;;;;;5015342;28;20892;-68
2023/10/09 12:03:30;;;;;;;15.67;6.17;;;23.30;59.80;;;;;;5015199;28;20530;-69
2023/10/09 12:06:14;;;;;;;11.60;6.03;;;23.30;58.00;;;;;;5033388;28;20455;-70
2023/10/09 12:08:40;;;;;;;13.23;5.40;;;23.20;57.80;;;;;;5035108;28;20424;-69
2023/10/09 12:11:09;;;;;;;9.47;5.93;;;23.10;58.40;;;;;;5034818;28;20554;-69
2023/10/09 12:13:37;;;;;;;17.30;7.07;;;23.10;55.40;;;;;;5034649;28;20490;-70
2023/10/09 12:16:08;;;;;;;15.87;5.97;;;23.20;56.00;;;;;;5012442;28;20442;-69
2023/10/09 12:18:34;;;;;;;13.60;6.13;;;23.10;57.60;;;;;;5014979;28;20469;-69
2023/10/09 12:21:04;;;;;;;8.83;5.03;;;23.20;51.80;;;;;;5014905;28;20524;-70
2023/10/09 12:23:35;;;;;;;11.80;5.73;;;23.40;52.40;;;;;;5014789;28;20446;-70
2023/10/09 12:26:04;;;;;;;10.53;5.53;;;23.60;54.50;;;;;;5014998;28;20954;-70
2023/10/09 12:28:32;;;;;;;9.10;5.83;;;24.10;54.90;;;;;;5014948;28;20524;-69
2023/10/09 12:31:01;;;;;;;8.13;5.27;;;24.60;49.80;;;;;;5013747;28;20519;-69
2023/10/09 12:33:27;;;;;;;12.70;6.37;;;25.00;50.60;;;;;;5014592;28;20517;-69
2023/10/09 12:35:59;;;;;;;9.57;6.10;;;26.50;47.50;;;;;;5014783;28;20517;-70
2023/10/09 12:38:31;;;;;;;8.70;6.03;;;29.20;37.80;;;;;;5014648;28;20468;-69
2023/10/09 12:41:25;;;;;;;12.10;6.43;;;31.20;31.20;;;;;;5014768;28;20437;-69
2023/10/09 12:43:54;;;;;;;7.50;5.67;;;32.90;27.90;;;;;;5014298;28;20417;-70
2023/10/09 12:46:23;;;;;;;9.40;6.03;;;35.20;24.30;;;;;;5008779;28;20474;-70
2023/10/09 12:48:49;;;;;;;9.67;6.30;;;34.40;22.80;;;;;;5014452;28;20430;-71
2023/10/09 12:51:19;;;;;;;9.90;5.63;;;33.80;23.10;;;;;;5014362;28;20816;-70
2023/10/09 12:53:50;;;;;;;7.67;5.73;;;33.20;23.20;;;;;;5014179;28;20430;-70
2023/10/09 12:56:18;;;;;;;11.27;6.20;;;32.30;24.00;;;;;;5014465;28;20769;-70
2023/10/09 12:58:52;;;;;;;8.97;6.00;;;32.50;23.20;;;;;;5014297;28;20901;-70
2023/10/09 13:01:20;;;;;;;9.80;5.33;;;32.30;23.10;;;;;;5013210;28;20548;-70
2023/10/09 13:03:49;;;;;;;9.17;6.33;;;31.50;24.00;;;;;;5012912;28;20438;-71
2023/10/09 13:06:15;;;;;;;10.10;6.70;;;31.30;24.30;;;;;;5012195;28;21003;-69
2023/10/09 13:08:42;;;;;;;10.60;6.43;;;30.80;25.30;;;;;;5014157;28;20454;-70
2023/10/09 13:11:16;;;;;;;13.07;6.50;;;30.10;26.00;;;;;;5006833;28;20469;-69
2023/10/09 13:13:43;;;;;;;7.40;6.57;;;29.90;26.40;;;;;;5014357;28;20801;-69
2023/10/09 13:16:24;;;;;;;9.63;6.67;;;29.50;25.80;;;;;;5019274;28;20810;-70
2023/10/09 13:18:50;;;;;;;9.10;7.03;;;30.90;25.50;;;;;;5016215;28;20470;-70
2023/10/09 13:21:20;;;;;;;11.40;5.93;;;33.10;24.80;;;;;;5013656;28;20446;-70
2023/10/09 13:23:46;;;;;;;8.40;7.10;;;34.10;23.50;;;;;;5013511;28;20418;-70
2023/10/09 13:26:23;;;;;;;7.93;6.33;;;34.80;22.40;;;;;;5013662;28;20421;-70
2023/10/09 13:28:50;;;;;;;9.37;6.83;;;35.90;21.10;;;;;;5013716;28;20483;-70
2023/10/09 13:31:17;;;;;;;8.60;5.70;;;36.90;19.90;;;;;;5013626;28;20454;-70
2023/10/09 13:33:43;;;;;;;9.57;7.53;;;36.20;19.00;;;;;;5012444;28;20456;-70
2023/10/09 13:36:31;;;;;;;8.67;7.30;;;35.20;18.70;;;;;;5008990;28;20446;-69
2023/10/09 13:39:22;;;;;;;8.37;6.90;;;34.40;19.00;;;;;;5007670;28;20422;-69
2023/10/09 13:41:49;;;;;;;8.23;7.43;;;34.10;18.60;;;;;;5013360;28;20451;-69
2023/10/09 13:44:15;;;;;;;8.50;6.50;;;32.20;19.90;;;;;;5013071;28;20463;-70
2023/10/09 13:46:42;;;;;;;10.27;7.40;;;30.50;20.40;;;;;;5013455;28;20460;-70
2023/10/09 13:49:14;;;;;;;9.00;7.30;;;29.90;21.20;;;;;;5013184;28;20171;-69
2023/10/09 13:51:46;;;;;;;10.87;6.40;;;29.70;21.40;;;;;;5012065;28;20457;-69
2023/10/09 13:54:20;;;;;;;12.00;6.80;;;29.50;21.80;;;;;;5012896;28;20418;-69
2023/10/09 13:56:47;;;;;;;7.70;6.40;;;29.30;22.10;;;;;;5013124;28;20421;-69
2023/10/09 13:59:12;;;;;;;9.17;6.87;;;28.70;23.40;;;;;;5013219;28;20414;-69
2023/10/09 14:01:39;;;;;;;9.07;6.70;;;28.10;23.00;;;;;;5012863;28;20974;-69
2023/10/09 14:04:07;;;;;;;8.27;6.80;;;27.50;22.40;;;;;;5012855;28;20516;-69
2023/10/09 14:06:33;;;;;;;8.87;7.57;;;27.20;22.50;;;;;;5012168;28;20532;-70
2023/10/09 14:09:04;;;;;;;8.97;6.70;;;27.20;22.50;;;;;;5009178;28;20956;-69
2023/10/09 14:11:30;;;;;;;13.43;6.67;;;27.10;22.80;;;;;;5011685;28;20219;-70
2023/10/09 14:13:55;;;;;;;8.33;7.53;;;27.30;22.70;;;;;;5011635;28;20609;-69
2023/10/09 14:16:24;;;;;;;9.67;6.73;;;27.30;22.60;;;;;;5011500;28;20195;-69
2023/10/09 14:18:56;;;;;;;9.57;6.87;;;27.00;22.50;;;;;;5011069;28;20572;-69
2023/10/09 14:21:25;;;;;;;8.43;6.60;;;26.90;22.20;;;;;;5012649;28;20787;-69
2023/10/09 14:23:51;;;;;;;10.40;6.83;;;26.70;21.40;;;;;;5011478;28;20440;-70
2023/10/09 14:26:18;;;;;;;7.70;6.80;;;26.60;22.60;;;;;;5010260;28;20446;-69
2023/10/09 14:28:44;;;;;;;9.57;7.47;;;26.70;22.80;;;;;;5012490;28;20505;-70
2023/10/09 14:31:12;;;;;;;10.33;6.70;;;26.90;23.10;;;;;;5018289;28;21006;-70
2023/10/09 14:33:40;;;;;;;10.13;7.30;;;26.90;23.20;;;;;;5031818;28;20460;-70
2023/10/09 14:36:07;;;;;;;8.67;6.40;;;26.90;23.40;;;;;;5032270;28;20436;-69
2023/10/09 14:38:38;;;;;;;11.43;8.90;;;26.80;23.70;;;;;;5027575;28;20498;-69
2023/10/09 14:41:07;;;;;;;7.77;6.70;;;26.90;24.20;;;;;;5011815;28;20441;-69
2023/10/09 14:43:33;;;;;;;10.60;8.70;;;26.80;24.10;;;;;;5012035;28;20457;-70
2023/10/09 14:45:59;;;;;;;14.40;6.73;;;26.50;24.10;;;;;;5012244;28;20836;-70
2023/10/09 14:48:28;;;;;;;6.33;5.67;;;26.40;24.50;;;;;;5012435;28;20434;-69
2023/10/09 14:50:57;;;;;;;11.33;6.87;;;26.10;25.00;;;;;;5012259;28;20616;-69
2023/10/09 14:53:26;;;;;;;8.70;7.00;;;26.10;25.10;;;;;;5012128;28;20514;-69
2023/10/09 14:56:01;;;;;;;10.77;7.67;;;26.00;25.60;;;;;;5011181;28;20504;-70
2023/10/09 14:58:29;;;;;;;9.17;7.07;;;26.00;26.10;;;;;;5011960;28;20560;-69
2023/10/09 15:00:55;;;;;;;10.33;7.73;;;26.00;26.00;;;;;;5012258;28;20549;-70
2023/10/09 15:03:22;;;;;;;10.23;6.87;;;25.90;26.30;;;;;;5012172;28;20425;-69
2023/10/09 15:05:48;;;;;;;9.13;6.43;;;25.90;26.70;;;;;;5012352;28;20422;-69
2023/10/09 15:08:14;;;;;;;8.10;6.53;;;25.80;27.60;;;;;;5012154;28;20798;-69
2023/10/09 15:10:47;;;;;;;8.83;7.17;;;25.80;28.00;;;;;;5011018;28;20480;-69
2023/10/09 15:13:16;;;;;;;9.83;6.73;;;25.80;28.10;;;;;;5012127;28;20221;-69
2023/10/09 15:15:45;;;;;;;13.13;7.67;;;25.80;28.10;;;;;;5012055;28;20444;-70
2023/10/09 15:18:14;;;;;;;11.63;8.13;;;25.80;28.00;;;;;;5012132;28;20963;-69
2023/10/09 15:20:40;;;;;;;11.57;7.57;;;25.80;29.30;;;;;;5011995;28;20472;-70